createdAt,value
2023-02-25T00:00:58.742Z,50.866730
2023-02-25T00:02:04.164Z,50.866684
2023-02-25T00:03:00.780Z,50.866730
2023-02-25T00:03:58.723Z,50.866711
2023-02-25T00:04:58.713Z,50.866821
2023-02-25T00:05:58.727Z,50.866840
2023-02-25T00:06:58.718Z,50.866810
2023-02-25T00:07:58.676Z,50.866848
2023-02-25T00:08:58.668Z,50.866844
2023-02-25T00:09:58.667Z,50.867020
2023-02-25T00:10:58.682Z,50.866882
2023-02-25T00:11:58.654Z,50.866776
2023-02-25T00:13:12.118Z,50.866783
2023-02-25T00:14:00.628Z,50.866776
2023-02-25T00:14:58.632Z,50.866817
2023-02-25T00:15:58.624Z,50.866741
2023-02-25T00:16:58.627Z,50.866783
2023-02-25T00:17:58.597Z,50.866749
2023-02-25T00:18:58.588Z,50.866787
2023-02-25T00:19:58.596Z,50.866913
2023-02-25T00:20:58.581Z,50.866966
2023-02-25T00:21:58.580Z,50.867092
2023-02-25T00:22:58.563Z,50.867054
2023-02-25T00:28:59.426Z,50.866955
2023-02-25T00:29:59.391Z,50.867001
2023-02-25T00:30:59.530Z,50.867039
2023-02-25T00:31:59.597Z,50.867249
2023-02-25T00:32:59.377Z,50.867275
2023-02-25T00:33:59.372Z,50.867306
2023-02-25T00:34:59.351Z,50.867306
2023-02-25T00:35:59.334Z,50.867306
2023-02-25T00:36:59.463Z,50.867306
2023-02-25T00:38:13.777Z,50.867306
2023-02-25T00:39:01.397Z,50.867306
2023-02-25T00:39:59.314Z,50.867306
2023-02-25T00:40:59.328Z,50.867306
2023-02-25T00:41:59.290Z,50.867306
2023-02-25T00:42:59.284Z,50.867306
2023-02-25T00:43:59.283Z,50.866596
2023-02-25T00:44:59.278Z,50.866543
2023-02-25T00:45:59.395Z,50.866505
2023-02-25T00:46:59.254Z,50.866550
2023-02-25T00:47:59.256Z,50.866566
2023-02-25T00:48:59.248Z,50.866585
2023-02-25T00:49:59.247Z,50.866631
2023-02-25T00:50:59.222Z,50.866688
2023-02-25T00:52:00.163Z,50.866634
2023-02-25T00:53:00.254Z,50.866608
2023-02-25T01:00:06.570Z,50.866451
2023-02-25T01:01:06.580Z,50.866482
2023-02-25T01:02:06.563Z,50.866467
2023-02-25T01:03:06.580Z,50.866524
2023-02-25T01:04:07.358Z,50.866592
2023-02-25T01:05:08.395Z,50.866581
2023-02-25T01:06:06.526Z,50.866570
2023-02-25T01:07:06.538Z,50.866665
2023-02-25T01:08:08.626Z,50.866665
2023-02-25T01:09:08.421Z,50.866650
2023-02-25T01:10:07.490Z,50.866589
2023-02-25T01:11:06.480Z,50.866589
2023-02-25T01:12:06.488Z,50.866653
2023-02-25T01:13:06.471Z,50.866695
2023-02-25T01:14:06.551Z,50.866688
2023-02-25T01:15:06.455Z,50.866615
2023-02-25T01:16:06.493Z,50.866661
2023-02-25T01:17:07.356Z,50.866673
2023-02-25T01:18:06.428Z,50.866653
2023-02-25T01:19:06.422Z,50.866684
2023-02-25T01:20:06.400Z,50.866695
2023-02-25T01:21:06.420Z,50.866653
2023-02-25T01:22:07.357Z,50.866661
2023-02-25T01:23:06.391Z,50.866673
2023-02-25T01:24:06.372Z,50.866676
2023-02-25T01:25:06.368Z,50.866669
2023-02-25T01:26:06.357Z,50.866692
2023-02-25T01:27:06.344Z,50.866695
2023-02-25T01:28:06.360Z,50.866692
2023-02-25T01:29:06.335Z,50.866688
2023-02-25T01:30:06.347Z,50.866711
2023-02-25T01:31:06.415Z,50.866703
2023-02-25T01:32:06.423Z,50.866703
2023-02-25T01:33:06.317Z,50.866688
2023-02-25T01:34:06.293Z,50.866657
2023-02-25T01:35:06.298Z,50.866634
2023-02-25T01:36:06.308Z,50.866638
2023-02-25T01:37:06.301Z,50.866604
2023-02-25T01:38:06.271Z,50.866646
2023-02-25T01:39:06.280Z,50.866711
2023-02-25T01:40:06.268Z,50.866722
2023-02-25T01:41:06.251Z,50.866688
2023-02-25T01:42:06.246Z,50.866749
2023-02-25T01:43:06.287Z,50.866734
2023-02-25T01:44:06.229Z,50.866745
2023-02-25T01:45:06.213Z,50.866768
2023-02-25T01:46:06.218Z,50.866776
2023-02-25T01:47:06.866Z,50.866787
2023-02-25T01:48:06.198Z,50.866829
2023-02-25T01:49:06.202Z,50.866848
2023-02-25T01:50:06.179Z,50.866802
2023-02-25T01:51:06.168Z,50.866753
2023-02-25T01:52:06.164Z,50.866791
2023-02-25T01:53:06.161Z,50.866829
2023-02-25T01:54:06.144Z,50.866852
2023-02-25T01:55:06.139Z,50.866825
2023-02-25T01:56:06.133Z,50.866833
2023-02-25T01:57:06.126Z,50.866798
2023-02-25T01:58:06.116Z,50.866806
2023-02-25T01:59:06.104Z,50.866741
2023-02-25T02:00:06.095Z,50.866756
2023-02-25T02:01:06.158Z,50.866730
2023-02-25T02:02:06.126Z,50.866749
2023-02-25T02:03:06.068Z,50.866745
2023-02-25T02:04:06.060Z,50.866726
2023-02-25T02:05:06.071Z,50.866714
2023-02-25T02:06:06.054Z,50.866737
2023-02-25T02:07:06.076Z,50.866768
2023-02-25T02:08:06.948Z,50.866772
2023-02-25T02:09:06.035Z,50.866734
2023-02-25T02:10:06.017Z,50.866711
2023-02-25T02:11:06.016Z,50.866737
2023-02-25T02:12:06.476Z,50.866730
2023-02-25T02:13:05.994Z,50.866730
2023-02-25T02:14:05.988Z,50.866737
2023-02-25T02:15:05.982Z,50.866734
2023-02-25T02:16:06.101Z,50.866718
2023-02-25T02:17:05.963Z,50.866734
2023-02-25T02:18:05.963Z,50.866730
2023-02-25T02:19:05.953Z,50.866730
2023-02-25T02:20:05.940Z,50.866695
2023-02-25T02:21:06.455Z,50.866695
2023-02-25T02:22:05.932Z,50.866734
2023-02-25T02:23:05.921Z,50.866741
2023-02-25T02:24:05.906Z,50.866734
2023-02-25T02:25:06.876Z,50.866730
2023-02-25T02:26:05.924Z,50.866730
2023-02-25T02:27:06.456Z,50.866699
2023-02-25T02:28:05.882Z,50.866722
2023-02-25T02:29:05.866Z,50.866741
2023-02-25T02:30:05.860Z,50.866711
2023-02-25T02:31:05.980Z,50.866749
2023-02-25T02:32:05.946Z,50.866779
2023-02-25T02:33:05.860Z,50.866760
2023-02-25T02:34:05.831Z,50.866817
2023-02-25T02:35:05.830Z,50.866753
2023-02-25T02:36:06.460Z,50.866749
2023-02-25T02:37:05.828Z,50.866737
2023-02-25T02:38:05.838Z,50.866734
2023-02-25T02:39:05.794Z,50.866749
2023-02-25T02:40:05.889Z,50.866756
2023-02-25T02:41:05.780Z,50.866749
2023-02-25T02:42:05.787Z,50.866760
2023-02-25T02:43:05.764Z,50.866749
2023-02-25T02:44:05.755Z,50.866737
2023-02-25T02:45:06.378Z,50.866795
2023-02-25T02:46:05.826Z,50.866791
2023-02-25T02:47:05.743Z,50.866776
2023-02-25T02:48:05.735Z,50.866791
2023-02-25T02:49:05.707Z,50.866806
2023-02-25T02:50:05.707Z,50.866802
2023-02-25T02:51:05.691Z,50.866802
2023-02-25T02:52:05.690Z,50.866783
2023-02-25T02:53:05.686Z,50.866688
2023-02-25T02:54:05.677Z,50.866707
2023-02-25T02:55:05.669Z,50.866714
2023-02-25T02:56:05.660Z,50.866776
2023-02-25T02:57:05.648Z,50.866863
2023-02-25T02:58:05.655Z,50.866833
2023-02-25T02:59:05.703Z,50.866825
2023-02-25T03:00:05.633Z,50.866837
2023-02-25T03:01:05.778Z,50.866882
2023-02-25T03:02:05.611Z,50.866844
2023-02-25T03:03:05.607Z,50.866993
2023-02-25T03:04:05.622Z,50.867004
2023-02-25T03:05:05.578Z,50.867004
2023-02-25T03:06:05.577Z,50.866947
2023-02-25T03:07:05.574Z,50.866840
2023-02-25T03:08:05.566Z,50.866852
2023-02-25T03:09:05.554Z,50.866886
2023-02-25T03:10:05.558Z,50.866955
2023-02-25T03:11:06.376Z,50.867035
2023-02-25T03:12:05.528Z,50.867203
2023-02-25T03:13:05.514Z,50.867626
2023-02-25T03:14:05.505Z,50.867607
2023-02-25T03:15:05.524Z,50.867455
2023-02-25T03:16:05.497Z,50.867508
2023-02-25T03:17:05.557Z,50.867542
2023-02-25T03:18:05.488Z,50.867542
2023-02-25T03:19:05.457Z,50.867722
2023-02-25T03:20:06.472Z,50.866837
2023-02-25T03:21:05.470Z,50.866665
2023-02-25T03:22:05.455Z,50.866600
2023-02-25T03:23:05.446Z,50.866604
2023-02-25T03:24:05.446Z,50.866730
2023-02-25T03:25:05.972Z,50.866814
2023-02-25T03:26:05.430Z,50.866833
2023-02-25T03:27:05.417Z,50.866768
2023-02-25T03:28:05.410Z,50.866821
2023-02-25T03:29:05.407Z,50.866783
2023-02-25T03:30:05.403Z,50.866859
2023-02-25T03:31:05.472Z,50.866894
2023-02-25T03:32:05.556Z,50.866879
2023-02-25T03:33:05.377Z,50.866844
2023-02-25T03:34:05.362Z,50.866798
2023-02-25T03:35:05.356Z,50.866802
2023-02-25T03:36:05.360Z,50.866814
2023-02-25T03:37:05.350Z,50.866825
2023-02-25T03:38:05.333Z,50.866844
2023-02-25T03:39:05.327Z,50.866890
2023-02-25T03:40:05.888Z,50.866932
2023-02-25T03:41:05.325Z,50.866898
2023-02-25T03:42:05.339Z,50.866879
2023-02-25T03:43:07.914Z,50.866814
2023-02-25T03:44:05.293Z,50.866768
2023-02-25T03:45:05.282Z,50.866798
2023-02-25T03:46:05.300Z,50.866867
2023-02-25T03:47:05.262Z,50.866848
2023-02-25T03:48:05.261Z,50.866760
2023-02-25T03:49:05.251Z,50.866753
2023-02-25T03:50:05.254Z,50.866802
2023-02-25T03:51:05.245Z,50.866806
2023-02-25T03:52:05.225Z,50.866787
2023-02-25T03:53:05.214Z,50.866798
2023-02-25T03:54:05.226Z,50.866810
2023-02-25T03:55:05.204Z,50.866776
2023-02-25T03:56:05.196Z,50.866802
2023-02-25T03:57:05.187Z,50.866764
2023-02-25T03:58:05.191Z,50.866745
2023-02-25T03:59:05.162Z,50.866756
2023-02-25T04:02:13.115Z,50.866795
2023-02-25T04:03:13.081Z,50.866734
2023-02-25T04:04:13.128Z,50.866741
2023-02-25T04:05:13.872Z,50.866760
2023-02-25T04:06:13.054Z,50.866764
2023-02-25T04:07:13.063Z,50.866745
2023-02-25T04:08:13.046Z,50.866776
2023-02-25T04:09:13.036Z,50.866749
2023-02-25T04:10:13.035Z,50.866753
2023-02-25T04:11:13.018Z,50.866783
2023-02-25T04:12:13.074Z,50.866753
2023-02-25T04:13:13.001Z,50.866764
2023-02-25T04:14:12.988Z,50.866741
2023-02-25T04:15:12.991Z,50.866753
2023-02-25T04:16:13.022Z,50.866783
2023-02-25T04:17:13.015Z,50.866749
2023-02-25T04:18:12.965Z,50.866760
2023-02-25T04:19:12.949Z,50.866749
2023-02-25T04:20:12.952Z,50.866760
2023-02-25T04:21:12.947Z,50.866714
2023-02-25T04:22:12.941Z,50.866756
2023-02-25T04:23:12.929Z,50.866783
2023-02-25T04:24:12.913Z,50.866776
2023-02-25T04:25:12.907Z,50.866787
2023-02-25T04:26:12.899Z,50.866776
2023-02-25T04:27:12.896Z,50.866756
2023-02-25T04:28:12.895Z,50.866779
2023-02-25T04:29:12.874Z,50.866764
2023-02-25T04:30:12.883Z,50.866783
2023-02-25T04:31:13.004Z,50.866753
2023-02-25T04:32:12.997Z,50.866749
2023-02-25T04:33:12.853Z,50.866688
2023-02-25T04:34:12.845Z,50.866772
2023-02-25T04:35:12.822Z,50.866745
2023-02-25T04:36:12.817Z,50.866737
2023-02-25T04:37:12.812Z,50.866737
2023-02-25T04:38:12.814Z,50.866768
2023-02-25T04:39:12.815Z,50.866756
2023-02-25T04:40:12.785Z,50.866718
2023-02-25T04:41:12.786Z,50.866699
2023-02-25T04:42:12.789Z,50.866737
2023-02-25T04:43:12.776Z,50.866772
2023-02-25T04:44:12.757Z,50.866741
2023-02-25T04:45:12.763Z,50.866726
2023-02-25T04:46:12.802Z,50.866730
2023-02-25T04:47:12.731Z,50.866787
2023-02-25T04:48:12.734Z,50.866802
2023-02-25T04:49:12.719Z,50.866745
2023-02-25T04:50:12.743Z,50.866749
2023-02-25T04:51:12.704Z,50.866783
2023-02-25T04:52:12.708Z,50.866714
2023-02-25T04:53:12.683Z,50.866753
2023-02-25T04:54:12.677Z,50.866722
2023-02-25T04:55:12.674Z,50.866707
2023-02-25T04:56:12.661Z,50.866699
2023-02-25T04:57:12.655Z,50.866722
2023-02-25T04:58:12.642Z,50.866707
2023-02-25T04:59:12.637Z,50.866760
2023-02-25T05:00:12.677Z,50.866722
2023-02-25T05:01:12.621Z,50.866722
2023-02-25T05:02:12.621Z,50.866768
2023-02-25T05:03:12.606Z,50.866680
2023-02-25T05:04:12.600Z,50.866676
2023-02-25T05:05:13.529Z,50.866718
2023-02-25T05:06:12.583Z,50.866730
2023-02-25T05:07:12.570Z,50.866768
2023-02-25T05:08:12.565Z,50.866737
2023-02-25T05:09:12.604Z,50.866756
2023-02-25T05:10:12.554Z,50.866718
2023-02-25T05:11:12.540Z,50.866718
2023-02-25T05:12:12.522Z,50.866711
2023-02-25T05:13:12.522Z,50.866730
2023-02-25T05:14:12.535Z,50.866734
2023-02-25T05:15:12.526Z,50.866737
2023-02-25T05:16:12.542Z,50.866722
2023-02-25T05:17:12.503Z,50.866707
2023-02-25T05:18:12.476Z,50.866657
2023-02-25T05:19:12.472Z,50.866676
2023-02-25T05:20:12.554Z,50.866692
2023-02-25T05:21:12.458Z,50.866714
2023-02-25T05:22:12.460Z,50.866688
2023-02-25T05:23:12.439Z,50.866692
2023-02-25T05:24:12.439Z,50.866684
2023-02-25T05:25:12.448Z,50.866718
2023-02-25T05:26:12.428Z,50.866726
2023-02-25T05:27:12.406Z,50.866753
2023-02-25T05:28:12.403Z,50.866764
2023-02-25T05:29:12.408Z,50.866722
2023-02-25T05:30:12.399Z,50.866760
2023-02-25T05:31:13.190Z,50.866745
2023-02-25T05:32:12.521Z,50.866776
2023-02-25T05:33:12.365Z,50.866768
2023-02-25T05:34:12.356Z,50.866749
2023-02-25T05:35:12.347Z,50.866783
2023-02-25T05:36:12.337Z,50.866749
2023-02-25T05:37:12.327Z,50.866730
2023-02-25T05:38:12.318Z,50.866764
2023-02-25T05:39:12.885Z,50.866737
2023-02-25T05:40:12.312Z,50.866737
2023-02-25T05:41:12.309Z,50.866756
2023-02-25T05:42:12.292Z,50.866787
2023-02-25T05:43:12.280Z,50.866772
2023-02-25T05:44:12.270Z,50.866779
2023-02-25T05:45:12.280Z,50.866699
2023-02-25T05:46:12.251Z,50.866661
2023-02-25T05:47:12.290Z,50.866737
2023-02-25T05:48:12.239Z,50.866924
2023-02-25T05:49:12.247Z,50.867081
2023-02-25T05:50:12.251Z,50.866985
2023-02-25T05:51:12.212Z,50.866879
2023-02-25T05:52:12.206Z,50.866936
2023-02-25T05:53:12.203Z,50.866829
2023-02-25T05:54:12.201Z,50.866966
2023-02-25T05:55:12.180Z,50.867020
2023-02-25T05:56:12.166Z,50.867096
2023-02-25T05:57:13.164Z,50.867241
2023-02-25T05:58:12.162Z,50.867207
2023-02-25T05:59:12.153Z,50.867149
2023-02-25T06:00:12.141Z,50.867054
2023-02-25T06:01:12.134Z,50.866978
2023-02-25T06:02:12.171Z,50.866901
2023-02-25T06:03:12.134Z,50.866905
2023-02-25T06:04:12.893Z,50.866894
2023-02-25T06:05:12.114Z,50.866894
2023-02-25T06:06:12.098Z,50.866940
2023-02-25T06:07:12.089Z,50.866955
2023-02-25T06:08:12.096Z,50.866909
2023-02-25T06:09:12.076Z,50.866947
2023-02-25T06:10:12.063Z,50.866955
2023-02-25T06:11:12.052Z,50.866928
2023-02-25T06:12:12.052Z,50.866871
2023-02-25T06:13:12.044Z,50.866924
2023-02-25T06:14:12.033Z,50.866928
2023-02-25T06:15:12.022Z,50.866863
2023-02-25T06:16:12.026Z,50.866920
2023-02-25T06:17:12.015Z,50.866951
2023-02-25T06:18:11.996Z,50.866920
2023-02-25T06:19:12.482Z,50.866962
2023-02-25T06:20:11.980Z,50.866928
2023-02-25T06:21:11.978Z,50.866833
2023-02-25T06:22:11.999Z,50.866714
2023-02-25T06:23:11.966Z,50.866776
2023-02-25T06:24:11.951Z,50.866871
2023-02-25T06:25:11.939Z,50.867073
2023-02-25T06:26:11.929Z,50.867146
2023-02-25T06:27:11.931Z,50.867054
2023-02-25T06:28:12.475Z,50.867023
2023-02-25T06:29:12.465Z,50.866905
2023-02-25T06:30:11.905Z,50.866901
2023-02-25T06:31:11.932Z,50.866829
2023-02-25T06:32:12.096Z,50.866787
2023-02-25T06:33:11.886Z,50.866776
2023-02-25T06:34:11.900Z,50.866787
2023-02-25T06:35:11.873Z,50.866711
2023-02-25T06:36:11.882Z,50.866638
2023-02-25T06:37:11.858Z,50.866623
2023-02-25T06:38:11.853Z,50.866669
2023-02-25T06:39:11.852Z,50.866676
2023-02-25T06:40:11.837Z,50.866665
2023-02-25T06:41:11.835Z,50.866570
2023-02-25T06:42:12.469Z,50.866661
2023-02-25T06:43:11.810Z,50.866634
2023-02-25T06:44:11.802Z,50.866699
2023-02-25T06:45:11.790Z,50.866734
2023-02-25T06:46:11.865Z,50.866653
2023-02-25T06:47:11.767Z,50.866692
2023-02-25T06:48:11.766Z,50.866627
2023-02-25T06:49:11.769Z,50.866650
2023-02-25T06:50:11.749Z,50.866684
2023-02-25T06:51:11.744Z,50.866737
2023-02-25T06:52:11.726Z,50.866711
2023-02-25T06:53:11.721Z,50.866600
2023-02-25T06:54:11.713Z,50.866634
2023-02-25T06:55:11.699Z,50.866680
2023-02-25T06:56:11.709Z,50.866665
2023-02-25T06:57:11.686Z,50.866817
2023-02-25T06:58:12.015Z,50.866783
2023-02-25T06:59:12.676Z,50.866764
2023-02-25T07:00:11.673Z,50.866848
2023-02-25T07:01:11.729Z,50.866913
2023-02-25T07:02:11.661Z,50.866684
2023-02-25T07:03:12.476Z,50.866768
2023-02-25T07:04:11.687Z,50.866714
2023-02-25T07:05:11.628Z,50.866772
2023-02-25T07:06:11.643Z,50.866722
2023-02-25T07:07:11.609Z,50.866695
2023-02-25T07:16:19.060Z,50.866772
2023-02-25T07:17:18.907Z,50.866745
2023-02-25T07:18:18.904Z,50.866734
2023-02-25T07:19:18.888Z,50.866764
2023-02-25T07:20:18.894Z,50.866627
2023-02-25T07:21:18.880Z,50.866604
2023-02-25T07:22:18.872Z,50.866611
2023-02-25T07:23:18.869Z,50.866623
2023-02-25T07:24:18.847Z,50.866634
2023-02-25T07:25:18.935Z,50.866665
2023-02-25T07:26:18.829Z,50.866692
2023-02-25T07:27:19.855Z,50.866692
2023-02-25T07:28:18.822Z,50.866680
2023-02-25T07:29:18.815Z,50.866707
2023-02-25T07:30:18.818Z,50.866581
2023-02-25T07:31:19.024Z,50.866589
2023-02-25T07:32:18.980Z,50.866665
2023-02-25T07:33:18.777Z,50.866688
2023-02-25T07:34:18.770Z,50.866554
2023-02-25T07:35:18.768Z,50.866516
2023-02-25T07:36:18.763Z,50.866768
2023-02-25T07:37:18.752Z,50.866646
2023-02-25T07:38:18.736Z,50.866940
2023-02-25T07:39:18.730Z,50.866711
2023-02-25T07:40:18.730Z,50.866867
2023-02-25T07:41:19.326Z,50.866928
2023-02-25T07:42:18.710Z,50.866676
2023-02-25T07:43:18.708Z,50.866814
2023-02-25T07:44:18.694Z,50.866837
2023-02-25T07:45:18.709Z,50.866806
2023-02-25T07:46:18.746Z,50.866734
2023-02-25T07:47:18.681Z,50.866837
2023-02-25T07:48:18.683Z,50.866806
2023-02-25T07:49:18.668Z,50.866779
2023-02-25T07:50:18.650Z,50.866798
2023-02-25T07:51:18.742Z,50.866756
2023-02-25T07:52:18.634Z,50.866814
2023-02-25T07:53:18.621Z,50.866772
2023-02-25T07:54:18.626Z,50.866776
2023-02-25T07:55:18.621Z,50.866787
2023-02-25T07:56:18.602Z,50.866730
2023-02-25T07:57:18.599Z,50.866806
2023-02-25T07:58:29.247Z,50.866764
2023-02-25T07:59:18.576Z,50.866756
2023-02-25T08:00:18.582Z,50.866741
2023-02-25T08:01:18.543Z,50.866787
2023-02-25T08:02:21.299Z,50.866749
2023-02-25T08:03:18.549Z,50.866779
2023-02-25T08:04:18.627Z,50.866795
2023-02-25T08:05:18.530Z,50.866806
2023-02-25T08:06:18.530Z,50.866802
2023-02-25T08:07:18.513Z,50.866779
2023-02-25T08:08:18.530Z,50.866764
2023-02-25T08:09:18.516Z,50.866776
2023-02-25T08:10:18.488Z,50.866753
2023-02-25T08:11:18.492Z,50.866779
2023-02-25T08:12:18.476Z,50.866783
2023-02-25T08:13:18.481Z,50.866741
2023-02-25T08:14:18.460Z,50.866753
2023-02-25T08:15:18.449Z,50.866703
2023-02-25T08:16:18.524Z,50.866745
2023-02-25T08:17:18.440Z,50.866760
2023-02-25T08:18:18.437Z,50.866791
2023-02-25T08:19:18.416Z,50.866791
2023-02-25T08:20:18.408Z,50.866795
2023-02-25T08:21:18.413Z,50.866768
2023-02-25T08:22:18.405Z,50.866745
2023-02-25T08:23:18.386Z,50.866749
2023-02-25T08:24:18.382Z,50.866795
2023-02-25T08:25:18.369Z,50.866859
2023-02-25T08:26:18.372Z,50.866798
2023-02-25T08:27:18.356Z,50.866837
2023-02-25T08:28:18.338Z,50.866859
2023-02-25T08:29:18.344Z,50.866894
2023-02-25T08:30:18.334Z,50.866798
2023-02-25T08:31:18.493Z,50.866756
2023-02-25T08:32:18.455Z,50.866730
2023-02-25T08:33:18.313Z,50.866745
2023-02-25T08:34:18.292Z,50.866707
2023-02-25T08:35:18.291Z,50.866726
2023-02-25T08:36:18.285Z,50.866745
2023-02-25T08:37:18.293Z,50.866741
2023-02-25T08:38:18.277Z,50.866753
2023-02-25T08:39:18.263Z,50.866779
2023-02-25T08:40:19.915Z,50.866764
2023-02-25T08:41:19.237Z,50.866756
2023-02-25T08:42:18.232Z,50.866760
2023-02-25T08:43:18.220Z,50.866737
2023-02-25T08:44:18.230Z,50.866776
2023-02-25T08:45:18.240Z,50.866764
2023-02-25T08:46:20.941Z,50.866764
2023-02-25T08:47:18.227Z,50.866779
2023-02-25T08:48:18.182Z,50.866791
2023-02-25T08:49:18.172Z,50.866787
2023-02-25T08:50:18.189Z,50.866756
2023-02-25T08:51:18.156Z,50.866756
2023-02-25T08:52:18.147Z,50.866776
2023-02-25T08:53:18.145Z,50.866756
2023-02-25T08:54:18.138Z,50.866776
2023-02-25T08:55:18.144Z,50.866756
2023-02-25T08:56:18.117Z,50.866798
2023-02-25T08:57:18.109Z,50.866806
2023-02-25T08:58:18.096Z,50.866814
2023-02-25T08:59:18.091Z,50.866814
2023-02-25T09:00:18.081Z,50.866848
2023-02-25T09:01:18.176Z,50.866795
2023-02-25T09:02:18.059Z,50.866833
2023-02-25T09:03:18.059Z,50.866825
2023-02-25T09:04:18.099Z,50.866798
2023-02-25T09:05:20.588Z,50.866772
2023-02-25T09:06:19.028Z,50.866798
2023-02-25T09:07:18.028Z,50.866817
2023-02-25T09:08:18.029Z,50.866852
2023-02-25T09:09:18.026Z,50.866825
2023-02-25T09:10:18.023Z,50.866821
2023-02-25T09:11:17.988Z,50.866764
2023-02-25T09:12:17.988Z,50.866734
2023-02-25T09:13:17.980Z,50.866741
2023-02-25T09:14:17.991Z,50.866741
2023-02-25T09:15:17.976Z,50.866798
2023-02-25T09:16:18.140Z,50.866802
2023-02-25T09:17:17.960Z,50.866837
2023-02-25T09:18:18.849Z,50.866802
2023-02-25T09:19:18.020Z,50.866814
2023-02-25T09:20:17.933Z,50.866814
2023-02-25T09:21:17.918Z,50.866791
2023-02-25T09:22:17.908Z,50.866772
2023-02-25T09:23:17.896Z,50.866798
2023-02-25T09:24:17.888Z,50.866825
2023-02-25T09:25:17.878Z,50.866787
2023-02-25T09:26:17.877Z,50.866795
2023-02-25T09:27:17.863Z,50.866772
2023-02-25T09:28:17.855Z,50.866802
2023-02-25T09:29:17.873Z,50.866802
2023-02-25T09:30:17.846Z,50.866795
2023-02-25T09:31:17.952Z,50.866776
2023-02-25T09:32:17.970Z,50.866776
2023-02-25T09:33:18.786Z,50.866833
2023-02-25T09:34:17.810Z,50.866848
2023-02-25T09:35:19.772Z,50.866852
2023-02-25T09:36:19.347Z,50.866817
2023-02-25T09:37:17.781Z,50.866814
2023-02-25T09:38:17.778Z,50.866867
2023-02-25T09:39:17.773Z,50.866856
2023-02-25T09:40:17.759Z,50.866863
2023-02-25T09:41:17.747Z,50.866863
2023-02-25T09:42:17.733Z,50.866886
2023-02-25T09:43:18.745Z,50.866875
2023-02-25T09:44:17.728Z,50.866901
2023-02-25T09:45:17.750Z,50.866871
2023-02-25T09:46:17.722Z,50.866940
2023-02-25T09:47:17.759Z,50.866886
2023-02-25T09:48:17.686Z,50.866940
2023-02-25T09:49:17.728Z,50.866962
2023-02-25T09:50:17.670Z,50.866882
2023-02-25T09:51:17.680Z,50.866955
2023-02-25T09:52:17.667Z,50.866989
2023-02-25T09:53:17.651Z,50.866917
2023-02-25T09:54:17.664Z,50.866863
2023-02-25T09:55:17.640Z,50.866814
2023-02-25T09:56:17.634Z,50.866886
2023-02-25T09:57:17.626Z,50.866920
2023-02-25T09:58:17.617Z,50.866734
2023-02-25T09:59:18.362Z,50.866856
2023-02-25T10:00:17.619Z,50.866913
2023-02-25T10:01:17.591Z,50.866837
2023-02-25T10:02:17.638Z,50.866879
2023-02-25T10:03:17.674Z,50.866943
2023-02-25T10:04:17.565Z,50.866684
2023-02-25T10:05:17.921Z,50.866783
2023-02-25T10:06:18.304Z,50.866848
2023-02-25T10:07:17.546Z,50.866837
2023-02-25T10:08:18.287Z,50.866821
2023-02-25T10:09:17.550Z,50.866798
2023-02-25T10:10:17.529Z,50.866810
2023-02-25T10:11:17.521Z,50.866837
2023-02-25T10:12:20.016Z,50.866791
2023-02-25T10:13:17.507Z,50.866821
2023-02-25T10:14:21.031Z,50.866817
2023-02-25T10:15:18.904Z,50.866806
2023-02-25T10:16:18.507Z,50.866806
2023-02-25T10:17:17.488Z,50.866840
2023-02-25T10:18:21.428Z,50.866833
2023-02-25T10:19:18.448Z,50.866817
2023-02-25T10:20:17.441Z,50.866795
2023-02-25T10:21:17.436Z,50.866810
2023-02-25T10:22:17.503Z,50.866821
2023-02-25T10:23:17.440Z,50.866844
2023-02-25T10:24:17.407Z,50.866833
2023-02-25T10:25:17.399Z,50.866856
2023-02-25T10:26:17.389Z,50.866848
2023-02-25T10:27:17.375Z,50.866821
2023-02-25T10:28:18.368Z,50.866817
2023-02-25T10:29:17.368Z,50.866833
2023-02-25T10:30:17.364Z,50.866833
2023-02-25T10:31:17.442Z,50.866856
2023-02-25T10:32:17.667Z,50.866840
2023-02-25T10:33:17.331Z,50.866814
2023-02-25T10:34:17.325Z,50.866795
2023-02-25T10:35:17.311Z,50.866821
2023-02-25T10:36:17.316Z,50.866798
2023-02-25T10:37:18.796Z,50.866848
2023-02-25T10:38:17.290Z,50.866856
2023-02-25T10:39:17.892Z,50.866867
2023-02-25T10:40:17.316Z,50.866859
2023-02-25T10:41:17.261Z,50.866829
2023-02-25T10:42:17.264Z,50.866879
2023-02-25T10:43:17.259Z,50.866879
2023-02-25T10:44:17.243Z,50.866837
2023-02-25T10:45:17.234Z,50.866783
2023-02-25T10:46:17.275Z,50.866817
2023-02-25T10:47:17.219Z,50.866787
2023-02-25T10:48:17.221Z,50.866783
2023-02-25T10:49:17.203Z,50.866817
2023-02-25T10:50:17.195Z,50.866840
2023-02-25T10:51:18.180Z,50.866867
2023-02-25T10:52:17.194Z,50.866848
2023-02-25T10:53:17.176Z,50.866852
2023-02-25T10:54:17.157Z,50.866852
2023-02-25T10:55:19.894Z,50.866817
2023-02-25T10:56:17.163Z,50.866852
2023-02-25T10:57:17.166Z,50.866825
2023-02-25T10:58:17.140Z,50.866833
2023-02-25T10:59:17.111Z,50.866829
2023-02-25T11:00:17.120Z,50.866821
2023-02-25T11:01:17.164Z,50.866791
2023-02-25T11:02:17.132Z,50.866840
2023-02-25T11:03:17.392Z,50.866810
2023-02-25T11:04:17.813Z,50.866798
2023-02-25T11:05:17.083Z,50.866806
2023-02-25T11:06:17.056Z,50.866917
2023-02-25T11:07:17.062Z,50.866817
2023-02-25T11:08:17.049Z,50.866810
2023-02-25T11:09:17.044Z,50.866821
2023-02-25T11:10:17.021Z,50.866833
2023-02-25T11:11:17.022Z,50.866829
2023-02-25T11:12:17.013Z,50.866821
2023-02-25T11:13:17.884Z,50.866844
2023-02-25T11:14:18.010Z,50.866817
2023-02-25T11:15:16.979Z,50.866798
2023-02-25T11:16:17.030Z,50.866840
2023-02-25T11:17:17.409Z,50.866886
2023-02-25T11:18:16.967Z,50.866928
2023-02-25T11:19:16.952Z,50.866852
2023-02-25T11:20:16.946Z,50.866852
2023-02-25T11:21:16.941Z,50.866795
2023-02-25T11:22:16.921Z,50.866783
2023-02-25T11:23:16.909Z,50.866791
2023-02-25T11:24:16.914Z,50.866810
2023-02-25T11:25:16.908Z,50.866802
2023-02-25T11:26:16.883Z,50.866791
2023-02-25T11:27:16.885Z,50.866772
2023-02-25T11:28:16.873Z,50.866745
2023-02-25T11:29:17.866Z,50.866722
2023-02-25T11:30:16.944Z,50.866741
2023-02-25T11:31:16.984Z,50.866722
2023-02-25T11:32:17.004Z,50.866722
2023-02-25T11:33:16.841Z,50.866669
2023-02-25T11:34:17.803Z,50.866692
2023-02-25T11:35:17.412Z,50.866703
2023-02-25T11:36:16.816Z,50.866711
2023-02-25T11:37:17.307Z,50.866695
2023-02-25T11:38:16.799Z,50.866688
2023-02-25T11:39:16.783Z,50.866684
2023-02-25T11:40:16.770Z,50.866673
2023-02-25T11:41:16.774Z,50.866665
2023-02-25T11:42:16.762Z,50.866665
2023-02-25T11:43:16.768Z,50.866611
2023-02-25T11:44:16.753Z,50.866577
2023-02-25T11:45:16.730Z,50.866581
2023-02-25T11:46:16.788Z,50.866585